createdAt,value
2022-10-30T00:01:22.298Z,102134.41
2022-10-30T00:03:50.327Z,102140.38
2022-10-30T00:08:51.270Z,102142.09
2022-10-30T00:11:19.268Z,102124.13
2022-10-30T00:13:48.690Z,102134.38
2022-10-30T00:16:17.519Z,102125.81
2022-10-30T00:18:45.616Z,102132.69
2022-10-30T00:21:15.909Z,102128.38
2022-10-30T00:23:48.628Z,102130.13
2022-10-30T00:26:17.249Z,102122.41
2022-10-30T00:28:45.248Z,102127.53
2022-10-30T00:31:14.140Z,102128.41
2022-10-30T00:33:42.143Z,102101.03
2022-10-30T00:36:10.162Z,102117.25
2022-10-30T00:38:39.108Z,102128.44
2022-10-30T00:41:07.037Z,102128.44
2022-10-30T00:43:40.949Z,102120.75
2022-10-30T00:46:15.171Z,102118.19
2022-10-30T00:48:46.690Z,102122.44
2022-10-30T00:51:15.547Z,102124.16
2022-10-30T00:53:46.882Z,102132.75
2022-10-30T00:56:19.552Z,102125.03
2022-10-30T00:59:01.197Z,102129.31
2022-10-30T01:01:33.582Z,102137.91
2022-10-30T01:04:06.023Z,102121.59
2022-10-30T01:06:36.933Z,102123.31
2022-10-30T01:09:06.045Z,102137.03
2022-10-30T01:11:35.228Z,102119.00
2022-10-30T01:14:07.329Z,102125.88
2022-10-30T01:16:47.803Z,102122.44
2022-10-30T01:19:23.207Z,102121.59
2022-10-30T01:21:58.838Z,102125.03
2022-10-30T01:24:32.949Z,102122.44
2022-10-30T01:27:27.787Z,102125.88
2022-10-30T01:30:21.074Z,102115.59
2022-10-30T01:33:16.257Z,102120.78
2022-10-30T01:35:49.797Z,102121.63
2022-10-30T01:38:29.129Z,102118.22
2022-10-30T01:40:57.133Z,102125.91
2022-10-30T01:43:25.161Z,102114.75
2022-10-30T01:46:14.756Z,102119.88
2022-10-30T01:49:06.273Z,102112.13
2022-10-30T01:51:57.116Z,102116.44
2022-10-30T01:54:30.905Z,102107.00
2022-10-30T01:57:08.012Z,102116.44
2022-10-30T02:00:10.894Z,102109.56
2022-10-30T02:02:39.231Z,102108.72
2022-10-30T02:05:10.459Z,102113.88
2022-10-30T02:07:38.570Z,102116.44
2022-10-30T02:10:07.117Z,102130.16
2022-10-30T02:12:35.121Z,102114.72
2022-10-30T02:15:25.451Z,102119.03
2022-10-30T02:17:54.691Z,102123.31
2022-10-30T02:20:23.107Z,102111.28
2022-10-30T02:22:57.968Z,102111.28
2022-10-30T02:25:27.691Z,102102.75
2022-10-30T02:27:58.812Z,102120.75
2022-10-30T02:30:26.872Z,102113.91
2022-10-30T02:32:54.998Z,102112.16
2022-10-30T02:35:23.386Z,102111.28
2022-10-30T02:37:51.301Z,102118.13
2022-10-30T02:40:19.249Z,102124.09
2022-10-30T02:42:55.757Z,102095.00
2022-10-30T02:45:23.991Z,102107.84
2022-10-30T02:47:52.011Z,102110.38
2022-10-30T02:50:21.176Z,102101.00
2022-10-30T02:52:49.161Z,102104.34
2022-10-30T02:55:17.357Z,102110.34
2022-10-30T02:57:45.513Z,102110.31
2022-10-30T03:00:14.146Z,102110.28
2022-10-30T03:02:42.116Z,102095.69
2022-10-30T03:05:11.224Z,102105.97
2022-10-30T03:07:39.219Z,102106.81
2022-10-30T03:10:07.397Z,102091.38
2022-10-30T03:12:38.425Z,102088.84
2022-10-30T03:15:06.992Z,102090.50
2022-10-30T03:17:36.809Z,102088.78
2022-10-30T03:20:07.635Z,102081.88
2022-10-30T03:22:35.661Z,102080.19
2022-10-30T03:25:04.091Z,102075.91
2022-10-30T03:27:32.836Z,102073.38
2022-10-30T03:30:00.836Z,102060.53
2022-10-30T03:32:28.814Z,102085.31
2022-10-30T03:34:57.002Z,102088.72
2022-10-30T03:37:24.967Z,102092.13
2022-10-30T03:39:52.989Z,102089.56
2022-10-30T03:42:21.148Z,102082.66
2022-10-30T03:44:49.052Z,102085.22
2022-10-30T03:47:17.016Z,102080.06
2022-10-30T03:49:49.116Z,102084.31
2022-10-30T03:52:17.138Z,102076.59
2022-10-30T03:54:45.049Z,102070.53
2022-10-30T03:57:13.180Z,102083.38
2022-10-30T03:59:41.157Z,102071.34
2022-10-30T04:02:09.366Z,102077.31
2022-10-30T04:04:38.604Z,102072.16
2022-10-30T04:07:06.543Z,102071.25
2022-10-30T04:09:34.568Z,102064.31
2022-10-30T04:12:02.689Z,102061.72
2022-10-30T04:14:30.602Z,102064.22
2022-10-30T04:16:58.605Z,102059.88
2022-10-30T04:19:28.641Z,102057.25
2022-10-30T04:21:56.569Z,102055.50
2022-10-30T04:24:24.759Z,102045.22
2022-10-30T04:26:53.279Z,102041.78
2022-10-30T04:29:21.474Z,102050.28
2022-10-30T04:31:49.467Z,102053.66
2022-10-30T04:34:20.236Z,102056.19
2022-10-30T04:36:48.281Z,102051.84
2022-10-30T04:39:16.297Z,102045.78
2022-10-30T04:41:44.420Z,102044.91
2022-10-30T04:44:12.356Z,102050.06
2022-10-30T04:46:40.250Z,102044.88
2022-10-30T04:49:08.445Z,102049.13
2022-10-30T04:51:36.548Z,102051.66
2022-10-30T04:54:04.610Z,102048.22
2022-10-30T04:56:34.108Z,102053.31
2022-10-30T04:59:02.155Z,102055.91
2022-10-30T05:01:30.286Z,102042.06
2022-10-30T05:03:59.779Z,102038.56
2022-10-30T05:06:33.450Z,102036.78
2022-10-30T05:09:01.554Z,102032.38
2022-10-30T05:11:30.000Z,102033.19
2022-10-30T05:13:57.984Z,102029.66
2022-10-30T05:16:26.028Z,102024.47
2022-10-30T05:18:55.109Z,102024.44
2022-10-30T05:21:23.430Z,102016.69
2022-10-30T05:23:51.438Z,102025.31
2022-10-30T05:26:20.669Z,102027.03
2022-10-30T05:28:48.649Z,102018.44
2022-10-30T05:31:16.668Z,102018.44
2022-10-30T05:33:44.809Z,102013.25
2022-10-30T05:36:12.735Z,102005.56
2022-10-30T05:38:40.749Z,102012.25
2022-10-30T05:41:09.830Z,101989.84
2022-10-30T05:43:37.753Z,101993.22
2022-10-30T05:46:05.884Z,101997.34
2022-10-30T05:48:34.460Z,101996.50
2022-10-30T05:51:03.043Z,101990.53
2022-10-30T05:53:31.314Z,101988.88
2022-10-30T05:56:00.392Z,101989.66
2022-10-30T05:58:28.395Z,101994.84
2022-10-30T06:00:56.293Z,101989.66
2022-10-30T06:03:24.360Z,101988.84
2022-10-30T06:05:53.650Z,101930.75
2022-10-30T06:08:21.713Z,101967.44
2022-10-30T06:10:49.649Z,101970.69
2022-10-30T06:13:17.763Z,101971.50
2022-10-30T06:15:46.358Z,101974.16
2022-10-30T06:18:14.475Z,101977.56
2022-10-30T06:20:44.491Z,101975.06
2022-10-30T06:23:12.466Z,101983.59
2022-10-30T06:25:41.538Z,101981.88
2022-10-30T06:28:14.660Z,101983.56
2022-10-30T06:30:42.724Z,101962.13
2022-10-30T06:33:11.353Z,101972.31
2022-10-30T06:35:40.364Z,101974.88
2022-10-30T06:38:09.401Z,101944.91
2022-10-30T06:40:37.396Z,101966.22
2022-10-30T06:43:05.518Z,101967.97
2022-10-30T06:45:34.104Z,101965.38
2022-10-30T06:48:04.711Z,101952.59
2022-10-30T06:50:33.944Z,101957.66
2022-10-30T06:53:01.953Z,101961.06
2022-10-30T06:55:30.007Z,101953.31
2022-10-30T06:58:01.771Z,101952.28
2022-10-30T07:00:30.134Z,101945.34
2022-10-30T07:03:01.663Z,101940.16
2022-10-30T07:05:30.492Z,101937.53
2022-10-30T07:07:58.913Z,101941.84
2022-10-30T07:10:26.999Z,101917.00
2022-10-30T07:12:58.214Z,101913.53
2022-10-30T07:15:28.058Z,101932.34
2022-10-30T07:18:03.708Z,101926.31
2022-10-30T07:20:36.386Z,101923.75
2022-10-30T07:23:06.261Z,101912.47
2022-10-30T07:25:34.214Z,101924.44
2022-10-30T07:28:05.573Z,101914.88
2022-10-30T07:30:33.554Z,101912.28
2022-10-30T07:33:04.020Z,101909.69
2022-10-30T07:35:33.904Z,101900.16
2022-10-30T07:38:11.528Z,101885.59
2022-10-30T07:40:40.996Z,101898.31
2022-10-30T07:43:13.931Z,101888.81
2022-10-30T07:45:41.916Z,101890.53
2022-10-30T07:48:10.912Z,101893.13
2022-10-30T07:50:38.896Z,101881.16
2022-10-30T07:53:06.847Z,101881.19
2022-10-30T07:55:35.763Z,101884.63
2022-10-30T07:58:03.688Z,101881.16
2022-10-30T08:00:31.717Z,101834.41
2022-10-30T08:03:01.768Z,101878.63
2022-10-30T08:05:30.606Z,101872.50
2022-10-30T08:07:59.568Z,101868.09
2022-10-30T08:10:29.810Z,101861.22
2022-10-30T08:12:57.969Z,101842.38
2022-10-30T08:15:26.028Z,101861.19
2022-10-30T08:17:55.783Z,101846.63
2022-10-30T08:20:25.667Z,101856.72
2022-10-30T08:22:54.514Z,101849.78
2022-10-30T08:25:26.712Z,101855.06
2022-10-30T08:28:07.013Z,101841.47
2022-10-30T08:30:38.244Z,101846.75
2022-10-30T08:33:09.131Z,101835.63
2022-10-30T08:38:10.024Z,101842.69
2022-10-30T08:40:38.105Z,101841.00
2022-10-30T08:43:06.108Z,101829.84
2022-10-30T08:45:34.213Z,101819.75
2022-10-30T08:48:04.877Z,101825.66
2022-10-30T08:50:34.571Z,101828.28
2022-10-30T08:53:08.323Z,101834.31
2022-10-30T08:55:36.603Z,101817.97
2022-10-30T08:58:05.235Z,101819.63
2022-10-30T09:00:33.421Z,101819.59
2022-10-30T09:03:01.847Z,101815.28
2022-10-30T09:05:31.320Z,101805.94
2022-10-30T09:08:02.421Z,101821.31
2022-10-30T09:10:31.319Z,101816.22
2022-10-30T09:13:00.595Z,101807.63
2022-10-30T09:15:29.040Z,101811.09
2022-10-30T09:18:02.281Z,101806.00
2022-10-30T09:20:32.055Z,101800.81
2022-10-30T09:23:00.777Z,101803.44
2022-10-30T09:25:29.338Z,101794.81
2022-10-30T09:27:57.336Z,101788.84
2022-10-30T09:30:27.457Z,101793.13
2022-10-30T09:32:59.701Z,101792.28
2022-10-30T09:35:28.248Z,101785.41
2022-10-30T09:37:57.886Z,101783.75
2022-10-30T09:40:50.863Z,101785.47
2022-10-30T09:43:52.162Z,101788.16
2022-10-30T09:46:44.901Z,101774.44
2022-10-30T09:49:35.955Z,101779.69
2022-10-30T09:52:07.082Z,101775.44
2022-10-30T09:54:53.368Z,101776.34
2022-10-30T09:57:34.041Z,101760.16
2022-10-30T10:00:18.648Z,101759.25
2022-10-30T10:02:59.919Z,101759.34
2022-10-30T10:05:37.983Z,101767.91
2022-10-30T10:08:14.078Z,101748.16
2022-10-30T10:10:46.784Z,101769.66
2022-10-30T10:13:26.810Z,101767.09
2022-10-30T10:16:14.855Z,101754.22
2022-10-30T10:18:52.908Z,101759.44
2022-10-30T10:21:30.039Z,101759.47
2022-10-30T10:24:04.528Z,101748.38
2022-10-30T10:26:54.799Z,101757.78
2022-10-30T10:29:49.035Z,101753.53
2022-10-30T10:32:34.394Z,101758.69
2022-10-30T10:35:02.309Z,101745.84
2022-10-30T10:38:37.538Z,101746.75
2022-10-30T10:41:28.200Z,101738.22
2022-10-30T10:44:15.533Z,101732.25
2022-10-30T10:47:17.082Z,101728.03
2022-10-30T10:50:12.230Z,101735.81
2022-10-30T10:52:52.477Z,101722.06
2022-10-30T10:55:27.891Z,101724.66
2022-10-30T10:58:00.458Z,101725.53
2022-10-30T11:00:31.187Z,101722.94
2022-10-30T11:03:07.928Z,101711.78
2022-10-30T11:05:59.150Z,101709.22
2022-10-30T11:08:32.140Z,101718.72
2022-10-30T11:11:05.983Z,101705.84
2022-10-30T11:13:43.322Z,101700.69
2022-10-30T11:16:17.106Z,101700.66
2022-10-30T11:18:47.629Z,101704.09
2022-10-30T11:21:23.582Z,101698.97
2022-10-30T11:23:52.389Z,101686.06
2022-10-30T11:26:26.351Z,101688.66
2022-10-30T11:29:00.194Z,101687.91
2022-10-30T11:31:41.334Z,101694.72
2022-10-30T11:34:18.450Z,101687.88
2022-10-30T11:36:52.165Z,101693.88
2022-10-30T11:39:38.042Z,101687.88
2022-10-30T11:42:15.296Z,101678.41
2022-10-30T11:44:51.591Z,101687.00
2022-10-30T11:47:32.972Z,101675.81
2022-10-30T11:50:08.657Z,101668.97
2022-10-30T11:52:43.735Z,101678.38
2022-10-30T11:55:21.400Z,101671.50
2022-10-30T11:57:53.147Z,101667.19
2022-10-30T12:00:28.457Z,101668.06
2022-10-30T12:03:01.428Z,101670.66
2022-10-30T12:05:44.871Z,101633.31
2022-10-30T12:08:24.671Z,101653.53
2022-10-30T12:10:53.543Z,101656.13
2022-10-30T12:13:23.807Z,101645.00
2022-10-30T12:16:16.588Z,101645.88
2022-10-30T12:19:04.969Z,101647.63
2022-10-30T12:21:43.592Z,101637.31
2022-10-30T12:24:32.649Z,101634.78
2022-10-30T12:27:11.322Z,101633.03
2022-10-30T12:30:09.214Z,101629.66
2022-10-30T12:32:53.549Z,101631.41
2022-10-30T12:35:45.552Z,101630.56
2022-10-30T12:38:42.889Z,101622.03
2022-10-30T12:41:27.112Z,101628.09
2022-10-30T12:44:14.439Z,101620.41
2022-10-30T12:47:22.897Z,101616.19
2022-10-30T12:52:48.017Z,101626.63
2022-10-30T12:55:26.331Z,101623.22
2022-10-30T12:58:06.357Z,101613.78
2022-10-30T13:00:42.439Z,101625.84
2022-10-30T13:03:28.579Z,101617.25
2022-10-30T13:06:08.222Z,101624.19
2022-10-30T13:08:39.643Z,101623.38
2022-10-30T13:11:22.975Z,101610.66
2022-10-30T13:13:53.861Z,101631.22
2022-10-30T13:16:34.558Z,101619.25
2022-10-30T13:19:04.548Z,101627.88
2022-10-30T13:21:51.608Z,101621.91
2022-10-30T13:24:45.709Z,101625.34
2022-10-30T13:27:35.062Z,101605.69
2022-10-30T13:30:07.398Z,101625.41
2022-10-30T13:33:06.364Z,101618.50
2022-10-30T13:36:03.702Z,101622.78
2022-10-30T13:38:44.280Z,101621.91
2022-10-30T13:41:58.709Z,101611.59
2022-10-30T13:44:53.151Z,101609.03
2022-10-30T13:47:56.345Z,101600.44
2022-10-30T13:50:48.763Z,101601.28
2022-10-30T13:53:26.687Z,101605.59
2022-10-30T13:55:58.106Z,101590.97
2022-10-30T13:58:40.772Z,101593.59
2022-10-30T14:01:22.156Z,101595.34
2022-10-30T14:04:05.130Z,101593.69
2022-10-30T14:06:37.196Z,101588.59
2022-10-30T14:09:29.936Z,101575.78
2022-10-30T14:12:23.644Z,101570.91
2022-10-30T14:14:51.644Z,101586.25
2022-10-30T14:17:19.637Z,101585.50
2022-10-30T14:20:15.835Z,101571.84
2022-10-30T14:22:44.043Z,101577.94
2022-10-30T14:25:20.304Z,101577.13
2022-10-30T14:27:57.670Z,101574.66
2022-10-30T14:30:31.507Z,101567.81
2022-10-30T14:32:59.488Z,101562.84
2022-10-30T14:35:36.499Z,101562.81
2022-10-30T14:38:10.464Z,101559.41
2022-10-30T14:40:48.594Z,101557.75
2022-10-30T14:43:34.181Z,101561.22
2022-10-30T14:46:13.566Z,101558.75
2022-10-30T14:48:55.364Z,101548.56
2022-10-30T14:51:38.811Z,101552.06
2022-10-30T14:54:28.482Z,101552.94
2022-10-30T14:56:58.271Z,101559.84
2022-10-30T14:59:36.598Z,101540.19
2022-10-30T15:02:07.562Z,101547.16
2022-10-30T15:04:53.547Z,101542.03
2022-10-30T15:07:40.431Z,101537.88
2022-10-30T15:10:29.707Z,101538.81
2022-10-30T15:13:10.901Z,101535.44
2022-10-30T15:15:39.105Z,101529.47
2022-10-30T15:18:18.097Z,101524.44
2022-10-30T15:20:53.121Z,101448.09
2022-10-30T15:23:30.759Z,101528.00
2022-10-30T15:26:09.451Z,101527.19
2022-10-30T15:28:42.253Z,101532.38
2022-10-30T15:31:19.311Z,101527.31
2022-10-30T15:33:48.806Z,101517.06
2022-10-30T15:36:22.429Z,101517.13
2022-10-30T15:39:16.832Z,101518.84
2022-10-30T15:42:00.649Z,101511.16
2022-10-30T15:44:39.649Z,101515.47
2022-10-30T15:47:15.946Z,101461.91
2022-10-30T15:49:51.434Z,101511.25
2022-10-30T15:52:23.502Z,101505.31
2022-10-30T15:55:23.859Z,101497.63
2022-10-30T15:58:09.663Z,101502.81
2022-10-30T16:00:39.806Z,101499.44
2022-10-30T16:03:13.587Z,101503.75
2022-10-30T16:05:41.746Z,101496.09
2022-10-30T16:08:27.424Z,101499.53
2022-10-30T16:10:56.811Z,101490.19
2022-10-30T16:13:32.369Z,101490.19
2022-10-30T16:16:02.615Z,101490.25
2022-10-30T16:18:36.500Z,101492.88
2022-10-30T16:21:09.352Z,101481.81
2022-10-30T16:23:43.492Z,101477.59
2022-10-30T16:26:24.897Z,101477.66
2022-10-30T16:28:52.919Z,101467.44
2022-10-30T16:31:22.046Z,101463.16
2022-10-30T16:33:50.407Z,101443.63
2022-10-30T16:36:19.278Z,101453.81
2022-10-30T16:38:49.716Z,101453.00
2022-10-30T16:41:25.713Z,101446.19
2022-10-30T16:44:25.059Z,101437.66
2022-10-30T16:47:02.019Z,101438.53
2022-10-30T16:49:35.691Z,101437.72
2022-10-30T16:52:08.464Z,101430.06
2022-10-30T16:54:42.833Z,101429.25
2022-10-30T16:57:19.100Z,101431.81
2022-10-30T16:59:51.708Z,101411.34
2022-10-30T17:02:26.986Z,101418.22
2022-10-30T17:05:01.410Z,101412.25
2022-10-30T17:07:30.975Z,101411.41
2022-10-30T17:09:59.163Z,101396.13
2022-10-30T17:12:29.679Z,101392.63
2022-10-30T17:15:15.213Z,101389.25
2022-10-30T17:17:43.559Z,101381.59
2022-10-30T17:20:14.130Z,101372.22
2022-10-30T17:22:42.782Z,101380.78
2022-10-30T17:25:36.401Z,101371.44
2022-10-30T17:28:05.636Z,101370.59
2022-10-30T17:30:42.272Z,101374.91
2022-10-30T17:33:27.596Z,101371.47
2022-10-30T17:35:55.772Z,101345.03
2022-10-30T17:38:23.985Z,101359.50
2022-10-30T17:40:53.122Z,101357.81
2022-10-30T17:43:21.301Z,101357.81
2022-10-30T17:45:49.813Z,101348.44
2022-10-30T17:48:18.967Z,101351.91
2022-10-30T17:50:47.032Z,101349.34
2022-10-30T17:53:23.570Z,101340.81
2022-10-30T17:56:04.490Z,101338.28
2022-10-30T17:58:32.622Z,101334.91
2022-10-30T18:01:01.336Z,101339.25
2022-10-30T18:03:29.443Z,101328.22
2022-10-30T18:05:59.317Z,101329.09
2022-10-30T18:08:27.432Z,101284.09
2022-10-30T18:10:55.505Z,101339.44
2022-10-30T18:13:24.457Z,101333.50
2022-10-30T18:15:59.397Z,101334.41
2022-10-30T18:18:28.387Z,101331.88
2022-10-30T18:20:56.363Z,101336.16
2022-10-30T18:23:51.187Z,101325.03
2022-10-30T18:26:19.039Z,101322.47
2022-10-30T18:28:48.317Z,101319.06
2022-10-30T18:31:19.603Z,101321.66
2022-10-30T18:33:49.725Z,101312.31
2022-10-30T18:36:23.989Z,101314.03
2022-10-30T18:38:59.222Z,101262.19
2022-10-30T18:41:34.355Z,101316.59
2022-10-30T18:44:02.695Z,101299.53
2022-10-30T18:46:35.713Z,101296.28
2022-10-30T18:49:03.732Z,101290.38
2022-10-30T18:51:31.702Z,101301.47
2022-10-30T18:54:02.694Z,101299.75
2022-10-30T18:56:33.301Z,101293.81
2022-10-30T18:59:02.570Z,101280.22
2022-10-30T19:01:36.740Z,101292.13
2022-10-30T19:04:06.898Z,101285.34
2022-10-30T19:06:34.975Z,101281.06
2022-10-30T19:09:03.153Z,101242.03
2022-10-30T19:11:31.775Z,101286.28
2022-10-30T19:14:00.826Z,101282.91
2022-10-30T19:16:29.179Z,101276.91
2022-10-30T19:18:57.123Z,101275.22
2022-10-30T19:21:27.061Z,101278.66
2022-10-30T19:24:03.724Z,101271.84
2022-10-30T19:26:31.642Z,101263.34
2022-10-30T19:28:59.606Z,101257.38
2022-10-30T19:31:27.868Z,101243.81
2022-10-30T19:33:57.427Z,101260.84
2022-10-30T19:36:30.437Z,101256.56
2022-10-30T19:39:00.067Z,101250.59
2022-10-30T19:44:03.966Z,101238.69
2022-10-30T19:46:32.078Z,101254.84
2022-10-30T19:49:00.623Z,101253.13
2022-10-30T19:51:29.668Z,101247.19
2022-10-30T19:53:58.020Z,101254.88
2022-10-30T19:56:26.036Z,101193.75
2022-10-30T19:58:53.952Z,101254.06
2022-10-30T20:01:23.947Z,101254.06
2022-10-30T20:03:53.288Z,101245.53
2022-10-30T20:06:22.087Z,101250.66
2022-10-30T20:08:51.211Z,101240.50
2022-10-30T20:11:19.206Z,101236.28
2022-10-30T20:13:50.598Z,101232.91
2022-10-30T20:16:22.638Z,101241.50
2022-10-30T20:18:51.525Z,101230.44
2022-10-30T20:21:20.986Z,101236.47
2022-10-30T20:23:50.397Z,101227.97
2022-10-30T20:26:25.958Z,101229.75
2022-10-30T20:28:55.420Z,101221.31
2022-10-30T20:31:23.397Z,101213.63
2022-10-30T20:33:51.342Z,101211.13
2022-10-30T20:36:19.594Z,101212.00
2022-10-30T20:38:47.774Z,101192.50
2022-10-30T20:41:29.513Z,101212.94
2022-10-30T20:43:57.632Z,101201.94
2022-10-30T20:46:25.688Z,101197.69
2022-10-30T20:48:53.626Z,101197.66
2022-10-30T20:51:25.913Z,101199.38
2022-10-30T20:53:54.106Z,101192.53
2022-10-30T20:56:22.092Z,101179.78
2022-10-30T20:58:50.359Z,101195.94
2022-10-30T21:01:18.609Z,101176.41
2022-10-30T21:03:47.537Z,101186.63
2022-10-30T21:06:16.456Z,101184.97
2022-10-30T21:08:44.398Z,101173.91
2022-10-30T21:11:12.353Z,101173.06
2022-10-30T21:13:41.388Z,101162.00
2022-10-30T21:16:10.345Z,101149.28
2022-10-30T21:18:38.347Z,101162.03
2022-10-30T21:21:09.328Z,101156.94
2022-10-30T21:23:37.326Z,101164.56
2022-10-30T21:26:11.589Z,101149.19
2022-10-30T21:28:43.198Z,101148.34
2022-10-30T21:31:13.940Z,101133.84
2022-10-30T21:33:42.080Z,101136.44
2022-10-30T21:36:15.399Z,101128.75
2022-10-30T21:38:47.623Z,101131.25
2022-10-30T21:41:20.452Z,101130.38
2022-10-30T21:43:57.479Z,101136.31
2022-10-30T21:46:28.341Z,101132.03
2022-10-30T21:48:56.902Z,101136.31
2022-10-30T21:51:27.270Z,101130.41
2022-10-30T21:53:58.691Z,101132.16
2022-10-30T21:56:28.919Z,101125.34
2022-10-30T21:58:59.864Z,101134.75
2022-10-30T22:01:31.459Z,101125.38
2022-10-30T22:04:00.958Z,101123.72
2022-10-30T22:06:30.178Z,101127.97
2022-10-30T22:09:00.205Z,101127.19
2022-10-30T22:11:30.255Z,101120.41
2022-10-30T22:14:01.445Z,101126.38
2022-10-30T22:16:32.427Z,101131.50
2022-10-30T22:19:01.169Z,101123.03
2022-10-30T22:21:30.244Z,101130.72
2022-10-30T22:24:01.542Z,101132.47
2022-10-30T22:26:30.085Z,101116.34
2022-10-30T22:29:00.842Z,101118.91
2022-10-30T22:31:30.471Z,101120.63
2022-10-30T22:34:01.445Z,101118.13
2022-10-30T22:36:34.233Z,101113.00
2022-10-30T22:39:13.419Z,101118.97
2022-10-30T22:41:42.406Z,101119.00
2022-10-30T22:44:15.067Z,101121.56
2022-10-30T22:46:46.377Z,101112.22
2022-10-30T22:49:14.368Z,101105.44
2022-10-30T22:51:42.293Z,101106.28
2022-10-30T22:54:14.016Z,101108.88
2022-10-30T22:56:42.812Z,101109.78
2022-10-30T22:59:15.236Z,101103.00
2022-10-30T23:01:45.753Z,101107.22
2022-10-30T23:04:16.676Z,101097.06
2022-10-30T23:06:45.493Z,101097.88
2022-10-30T23:09:25.784Z,101101.25
2022-10-30T23:11:53.739Z,101100.41
2022-10-30T23:14:21.717Z,101110.63
2022-10-30T23:16:50.644Z,101105.53
2022-10-30T23:19:18.585Z,101097.06
2022-10-30T23:21:46.524Z,101103.00
2022-10-30T23:24:14.740Z,101095.34
2022-10-30T23:26:42.739Z,101091.97
2022-10-30T23:29:10.699Z,101102.16
2022-10-30T23:31:41.896Z,101086.88
2022-10-30T23:34:15.382Z,101092.81
2022-10-30T23:36:45.122Z,101092.84
2022-10-30T23:39:19.474Z,101097.94
2022-10-30T23:41:47.498Z,101086.06
2022-10-30T23:44:16.825Z,101094.56
2022-10-30T23:46:44.689Z,101090.31
2022-10-30T23:49:12.774Z,101094.56
2022-10-30T23:51:40.744Z,101077.56
2022-10-30T23:54:11.697Z,101079.28
2022-10-30T23:56:39.663Z,101088.59
2022-10-30T23:59:07.730Z,101086.91
